sensor_id;sensor_type;location;lat;lon;timestamp;P1;durP1;ratioP1;P2;durP2;ratioP2
47804;SDS011;33568;45.286;9.900;2024-01-15T00:00:56;116.25;;;66.88;;
47804;SDS011;33568;45.286;9.900;2024-01-15T00:03:23;112.75;;;64.90;;
47804;SDS011;33568;45.286;9.900;2024-01-15T00:05:49;149.45;;;66.70;;
47804;SDS011;33568;45.286;9.900;2024-01-15T00:08:15;123.20;;;66.90;;
47804;SDS011;33568;45.286;9.900;2024-01-15T00:10:42;123.55;;;67.00;;
47804;SDS011;33568;45.286;9.900;2024-01-15T00:13:08;129.77;;;67.88;;
47804;SDS011;33568;45.286;9.900;2024-01-15T00:15:35;128.63;;;66.22;;
47804;SDS011;33568;45.286;9.900;2024-01-15T00:18:01;137.85;;;67.20;;
47804;SDS011;33568;45.286;9.900;2024-01-15T00:20:28;114.95;;;69.13;;
47804;SDS011;33568;45.286;9.900;2024-01-15T00:22:54;147.68;;;67.93;;
47804;SDS011;33568;45.286;9.900;2024-01-15T00:25:21;121.97;;;66.25;;
47804;SDS011;33568;45.286;9.900;2024-01-15T00:27:47;110.45;;;65.55;;
47804;SDS011;33568;45.286;9.900;2024-01-15T00:30:14;122.20;;;65.97;;
47804;SDS011;33568;45.286;9.900;2024-01-15T00:32:41;107.55;;;65.57;;
47804;SDS011;33568;45.286;9.900;2024-01-15T00:35:07;108.90;;;65.55;;
47804;SDS011;33568;45.286;9.900;2024-01-15T00:37:34;101.95;;;64.25;;
47804;SDS011;33568;45.286;9.900;2024-01-15T00:42:27;101.05;;;61.08;;
47804;SDS011;33568;45.286;9.900;2024-01-15T00:44:53;96.90;;;61.85;;
47804;SDS011;33568;45.286;9.900;2024-01-15T00:47:20;103.75;;;65.25;;
47804;SDS011;33568;45.286;9.900;2024-01-15T00:52:13;97.25;;;59.55;;
47804;SDS011;33568;45.286;9.900;2024-01-15T00:54:39;103.30;;;62.85;;
47804;SDS011;33568;45.286;9.900;2024-01-15T00:59:32;100.07;;;61.65;;
47804;SDS011;33568;45.286;9.900;2024-01-15T01:01:58;103.63;;;62.38;;
47804;SDS011;33568;45.286;9.900;2024-01-15T01:04:25;97.13;;;62.08;;
47804;SDS011;33568;45.286;9.900;2024-01-15T01:06:51;93.60;;;59.58;;
47804;SDS011;33568;45.286;9.900;2024-01-15T01:09:17;96.68;;;62.50;;
47804;SDS011;33568;45.286;9.900;2024-01-15T01:11:44;102.45;;;62.70;;
47804;SDS011;33568;45.286;9.900;2024-01-15T01:14:10;105.93;;;63.45;;
47804;SDS011;33568;45.286;9.900;2024-01-15T01:16:37;100.88;;;63.40;;
47804;SDS011;33568;45.286;9.900;2024-01-15T01:19:05;108.07;;;66.30;;
47804;SDS011;33568;45.286;9.900;2024-01-15T01:21:33;106.85;;;67.07;;
47804;SDS011;33568;45.286;9.900;2024-01-15T01:24:00;105.72;;;67.15;;
47804;SDS011;33568;45.286;9.900;2024-01-15T01:26:26;112.80;;;67.07;;
47804;SDS011;33568;45.286;9.900;2024-01-15T01:31:19;93.22;;;60.50;;
47804;SDS011;33568;45.286;9.900;2024-01-15T01:33:45;107.97;;;64.88;;
47804;SDS011;33568;45.286;9.900;2024-01-15T01:36:11;91.03;;;59.63;;
47804;SDS011;33568;45.286;9.900;2024-01-15T01:38:39;99.00;;;62.05;;
47804;SDS011;33568;45.286;9.900;2024-01-15T01:41:06;99.53;;;63.53;;
47804;SDS011;33568;45.286;9.900;2024-01-15T01:43:33;103.45;;;66.10;;
47804;SDS011;33568;45.286;9.900;2024-01-15T01:46:00;102.15;;;64.63;;
47804;SDS011;33568;45.286;9.900;2024-01-15T01:48:27;107.40;;;67.35;;
47804;SDS011;33568;45.286;9.900;2024-01-15T01:55:48;106.10;;;61.33;;
47804;SDS011;33568;45.286;9.900;2024-01-15T01:58:16;112.47;;;65.40;;
47804;SDS011;33568;45.286;9.900;2024-01-15T02:00:43;108.20;;;66.07;;
47804;SDS011;33568;45.286;9.900;2024-01-15T02:03:09;109.43;;;65.60;;
47804;SDS011;33568;45.286;9.900;2024-01-15T02:08:02;106.35;;;62.78;;
47804;SDS011;33568;45.286;9.900;2024-01-15T02:10:29;107.63;;;64.40;;
47804;SDS011;33568;45.286;9.900;2024-01-15T02:12:55;105.38;;;64.22;;
47804;SDS011;33568;45.286;9.900;2024-01-15T02:15:22;100.95;;;63.10;;
47804;SDS011;33568;45.286;9.900;2024-01-15T02:17:58;101.28;;;65.55;;
47804;SDS011;33568;45.286;9.900;2024-01-15T02:20:29;91.78;;;61.42;;
47804;SDS011;33568;45.286;9.900;2024-01-15T02:23:12;96.22;;;60.80;;
47804;SDS011;33568;45.286;9.900;2024-01-15T02:25:40;91.90;;;61.13;;
47804;SDS011;33568;45.286;9.900;2024-01-15T02:28:12;103.38;;;63.15;;
47804;SDS011;33568;45.286;9.900;2024-01-15T02:30:40;95.00;;;62.35;;
47804;SDS011;33568;45.286;9.900;2024-01-15T02:33:08;98.93;;;63.35;;
47804;SDS011;33568;45.286;9.900;2024-01-15T02:35:36;102.78;;;63.65;;
47804;SDS011;33568;45.286;9.900;2024-01-15T02:38:03;101.80;;;63.15;;
47804;SDS011;33568;45.286;9.900;2024-01-15T02:40:29;100.18;;;62.85;;
47804;SDS011;33568;45.286;9.900;2024-01-15T02:45:22;89.47;;;57.85;;
47804;SDS011;33568;45.286;9.900;2024-01-15T02:47:49;86.65;;;59.30;;
47804;SDS011;33568;45.286;9.900;2024-01-15T02:50:16;90.90;;;60.63;;
47804;SDS011;33568;45.286;9.900;2024-01-15T02:52:42;95.65;;;64.05;;
47804;SDS011;33568;45.286;9.900;2024-01-15T02:57:35;90.57;;;57.97;;
47804;SDS011;33568;45.286;9.900;2024-01-15T03:00:02;108.25;;;65.05;;
47804;SDS011;33568;45.286;9.900;2024-01-15T03:02:29;102.10;;;64.47;;
47804;SDS011;33568;45.286;9.900;2024-01-15T03:04:58;107.18;;;66.82;;
47804;SDS011;33568;45.286;9.900;2024-01-15T03:07:25;100.63;;;64.03;;
47804;SDS011;33568;45.286;9.900;2024-01-15T03:09:51;109.22;;;67.45;;
47804;SDS011;33568;45.286;9.900;2024-01-15T03:12:20;112.50;;;67.43;;
47804;SDS011;33568;45.286;9.900;2024-01-15T03:14:46;107.22;;;67.22;;
47804;SDS011;33568;45.286;9.900;2024-01-15T03:17:13;107.40;;;67.05;;
47804;SDS011;33568;45.286;9.900;2024-01-15T03:22:06;107.57;;;63.88;;
47804;SDS011;33568;45.286;9.900;2024-01-15T03:24:34;100.45;;;62.58;;
47804;SDS011;33568;45.286;9.900;2024-01-15T03:27:01;103.82;;;64.20;;
47804;SDS011;33568;45.286;9.900;2024-01-15T03:29:28;104.22;;;66.25;;
47804;SDS011;33568;45.286;9.900;2024-01-15T03:31:54;106.35;;;67.43;;
47804;SDS011;33568;45.286;9.900;2024-01-15T03:34:21;99.88;;;65.63;;
47804;SDS011;33568;45.286;9.900;2024-01-15T03:36:47;103.22;;;67.68;;
47804;SDS011;33568;45.286;9.900;2024-01-15T03:39:14;105.22;;;64.53;;
47804;SDS011;33568;45.286;9.900;2024-01-15T03:41:40;94.53;;;65.05;;
47804;SDS011;33568;45.286;9.900;2024-01-15T03:44:06;94.40;;;63.05;;
47804;SDS011;33568;45.286;9.900;2024-01-15T03:46:33;99.68;;;63.78;;
47804;SDS011;33568;45.286;9.900;2024-01-15T03:48:59;105.78;;;65.68;;
47804;SDS011;33568;45.286;9.900;2024-01-15T03:53:52;98.50;;;61.55;;
47804;SDS011;33568;45.286;9.900;2024-01-15T03:56:19;99.15;;;62.03;;
47804;SDS011;33568;45.286;9.900;2024-01-15T03:58:45;96.75;;;63.88;;
47804;SDS011;33568;45.286;9.900;2024-01-15T04:01:12;98.63;;;64.03;;
47804;SDS011;33568;45.286;9.900;2024-01-15T04:03:38;109.30;;;68.53;;
47804;SDS011;33568;45.286;9.900;2024-01-15T04:08:31;101.10;;;61.78;;
47804;SDS011;33568;45.286;9.900;2024-01-15T04:10:57;104.38;;;65.35;;
47804;SDS011;33568;45.286;9.900;2024-01-15T04:13:25;105.90;;;65.13;;
47804;SDS011;33568;45.286;9.900;2024-01-15T04:15:51;110.15;;;67.68;;
47804;SDS011;33568;45.286;9.900;2024-01-15T04:18:18;112.35;;;69.45;;
47804;SDS011;33568;45.286;9.900;2024-01-15T04:23:10;105.68;;;66.63;;
47804;SDS011;33568;45.286;9.900;2024-01-15T04:25:37;111.82;;;68.15;;
47804;SDS011;33568;45.286;9.900;2024-01-15T04:28:03;115.13;;;69.95;;
47804;SDS011;33568;45.286;9.900;2024-01-15T04:30:30;109.03;;;68.57;;
47804;SDS011;33568;45.286;9.900;2024-01-15T04:35:23;108.65;;;65.25;;
47804;SDS011;33568;45.286;9.900;2024-01-15T04:37:49;115.72;;;70.93;;
47804;SDS011;33568;45.286;9.900;2024-01-15T04:40:16;119.57;;;70.45;;
47804;SDS011;33568;45.286;9.900;2024-01-15T04:42:42;132.02;;;74.95;;
47804;SDS011;33568;45.286;9.900;2024-01-15T04:45:11;125.55;;;73.20;;
47804;SDS011;33568;45.286;9.900;2024-01-15T04:50:04;127.20;;;70.75;;
47804;SDS011;33568;45.286;9.900;2024-01-15T04:52:31;124.30;;;73.05;;
47804;SDS011;33568;45.286;9.900;2024-01-15T04:57:24;116.88;;;68.32;;
47804;SDS011;33568;45.286;9.900;2024-01-15T04:59:51;125.15;;;73.15;;
47804;SDS011;33568;45.286;9.900;2024-01-15T05:04:43;123.97;;;68.93;;
47804;SDS011;33568;45.286;9.900;2024-01-15T05:07:10;122.97;;;72.50;;
47804;SDS011;33568;45.286;9.900;2024-01-15T05:09:36;121.38;;;70.75;;
47804;SDS011;33568;45.286;9.900;2024-01-15T05:12:02;113.53;;;71.53;;
47804;SDS011;33568;45.286;9.900;2024-01-15T05:14:29;118.38;;;71.55;;
47804;SDS011;33568;45.286;9.900;2024-01-15T05:16:56;114.28;;;71.07;;
47804;SDS011;33568;45.286;9.900;2024-01-15T05:19:22;130.13;;;75.70;;
47804;SDS011;33568;45.286;9.900;2024-01-15T05:21:48;122.47;;;71.05;;
47804;SDS011;33568;45.286;9.900;2024-01-15T05:24:15;117.07;;;71.97;;
47804;SDS011;33568;45.286;9.900;2024-01-15T05:26:41;119.82;;;74.85;;
47804;SDS011;33568;45.286;9.900;2024-01-15T05:29:07;119.90;;;71.97;;
47804;SDS011;33568;45.286;9.900;2024-01-15T05:31:35;115.40;;;72.13;;
47804;SDS011;33568;45.286;9.900;2024-01-15T05:34:01;127.45;;;73.15;;
47804;SDS011;33568;45.286;9.900;2024-01-15T05:36:28;125.38;;;74.03;;
47804;SDS011;33568;45.286;9.900;2024-01-15T05:38:54;120.85;;;75.35;;
47804;SDS011;33568;45.286;9.900;2024-01-15T05:41:21;117.72;;;70.72;;
47804;SDS011;33568;45.286;9.900;2024-01-15T05:43:47;117.68;;;74.38;;
47804;SDS011;33568;45.286;9.900;2024-01-15T05:46:14;114.50;;;73.45;;
47804;SDS011;33568;45.286;9.900;2024-01-15T05:48:41;118.82;;;72.68;;
47804;SDS011;33568;45.286;9.900;2024-01-15T05:53:34;116.45;;;70.78;;
47804;SDS011;33568;45.286;9.900;2024-01-15T05:56:00;113.25;;;69.75;;
47804;SDS011;33568;45.286;9.900;2024-01-15T06:00:53;119.25;;;72.13;;
47804;SDS011;33568;45.286;9.900;2024-01-15T06:03:19;117.32;;;72.80;;
47804;SDS011;33568;45.286;9.900;2024-01-15T06:05:46;118.22;;;75.03;;
47804;SDS011;33568;45.286;9.900;2024-01-15T06:08:12;111.68;;;71.55;;
47804;SDS011;33568;45.286;9.900;2024-01-15T06:10:40;112.53;;;71.93;;
47804;SDS011;33568;45.286;9.900;2024-01-15T06:13:06;117.60;;;72.78;;
47804;SDS011;33568;45.286;9.900;2024-01-15T06:15:33;116.25;;;74.43;;
47804;SDS011;33568;45.286;9.900;2024-01-15T06:17:59;112.50;;;74.22;;
47804;SDS011;33568;45.286;9.900;2024-01-15T06:20:26;117.75;;;75.63;;
47804;SDS011;33568;45.286;9.900;2024-01-15T06:22:52;113.97;;;75.40;;
47804;SDS011;33568;45.286;9.900;2024-01-15T06:25:18;119.13;;;76.10;;
47804;SDS011;33568;45.286;9.900;2024-01-15T06:27:45;120.78;;;77.32;;
47804;SDS011;33568;45.286;9.900;2024-01-15T06:32:38;111.38;;;72.82;;
47804;SDS011;33568;45.286;9.900;2024-01-15T06:35:04;114.07;;;74.07;;
47804;SDS011;33568;45.286;9.900;2024-01-15T06:37:31;116.72;;;72.88;;
47804;SDS011;33568;45.286;9.900;2024-01-15T06:39:58;113.90;;;74.18;;
47804;SDS011;33568;45.286;9.900;2024-01-15T06:44:51;114.93;;;71.80;;
47804;SDS011;33568;45.286;9.900;2024-01-15T06:47:17;114.03;;;71.05;;
47804;SDS011;33568;45.286;9.900;2024-01-15T06:49:44;116.95;;;73.30;;
47804;SDS011;33568;45.286;9.900;2024-01-15T06:52:11;113.93;;;74.88;;
47804;SDS011;33568;45.286;9.900;2024-01-15T06:54:38;128.07;;;78.18;;
47804;SDS011;33568;45.286;9.900;2024-01-15T06:57:04;121.88;;;74.93;;
47804;SDS011;33568;45.286;9.900;2024-01-15T06:59:33;131.00;;;78.03;;
47804;SDS011;33568;45.286;9.900;2024-01-15T07:02:01;131.88;;;82.75;;
47804;SDS011;33568;45.286;9.900;2024-01-15T07:06:53;129.52;;;78.38;;
47804;SDS011;33568;45.286;9.900;2024-01-15T07:09:20;134.95;;;78.65;;
47804;SDS011;33568;45.286;9.900;2024-01-15T07:11:46;140.50;;;83.88;;
47804;SDS011;33568;45.286;9.900;2024-01-15T07:14:13;143.95;;;80.78;;
47804;SDS011;33568;45.286;9.900;2024-01-15T07:16:39;145.60;;;81.38;;
47804;SDS011;33568;45.286;9.900;2024-01-15T07:19:06;151.38;;;85.70;;
47804;SDS011;33568;45.286;9.900;2024-01-15T07:21:33;148.05;;;83.15;;
47804;SDS011;33568;45.286;9.900;2024-01-15T07:23:59;150.07;;;84.43;;
47804;SDS011;33568;45.286;9.900;2024-01-15T07:28:52;152.85;;;78.90;;
47804;SDS011;33568;45.286;9.900;2024-01-15T07:31:18;142.60;;;79.80;;
47804;SDS011;33568;45.286;9.900;2024-01-15T07:33:45;172.50;;;85.75;;
47804;SDS011;33568;45.286;9.900;2024-01-15T07:36:12;163.40;;;84.82;;
47804;SDS011;33568;45.286;9.900;2024-01-15T07:38:38;161.88;;;89.30;;
47804;SDS011;33568;45.286;9.900;2024-01-15T07:41:04;151.77;;;86.03;;
47804;SDS011;33568;45.286;9.900;2024-01-15T07:43:31;159.25;;;83.85;;
47804;SDS011;33568;45.286;9.900;2024-01-15T07:45:57;157.73;;;84.25;;
47804;SDS011;33568;45.286;9.900;2024-01-15T07:48:24;163.35;;;85.03;;
47804;SDS011;33568;45.286;9.900;2024-01-15T07:50:50;153.85;;;88.22;;
47804;SDS011;33568;45.286;9.900;2024-01-15T07:53:17;146.45;;;83.25;;
47804;SDS011;33568;45.286;9.900;2024-01-15T07:58:11;129.45;;;77.82;;
47804;SDS011;33568;45.286;9.900;2024-01-15T08:03:04;129.20;;;76.78;;
47804;SDS011;33568;45.286;9.900;2024-01-15T08:05:31;136.27;;;79.55;;
47804;SDS011;33568;45.286;9.900;2024-01-15T08:07:58;131.88;;;79.53;;
47804;SDS011;33568;45.286;9.900;2024-01-15T08:12:51;120.28;;;71.20;;
47804;SDS011;33568;45.286;9.900;2024-01-15T08:17:43;120.57;;;75.57;;
47804;SDS011;33568;45.286;9.900;2024-01-15T08:20:10;121.10;;;77.03;;
47804;SDS011;33568;45.286;9.900;2024-01-15T08:22:38;122.63;;;76.90;;
47804;SDS011;33568;45.286;9.900;2024-01-15T08:25:04;122.75;;;77.70;;
47804;SDS011;33568;45.286;9.900;2024-01-15T08:27:31;123.07;;;74.00;;
47804;SDS011;33568;45.286;9.900;2024-01-15T08:29:57;117.53;;;72.10;;
47804;SDS011;33568;45.286;9.900;2024-01-15T08:32:24;114.07;;;72.60;;
47804;SDS011;33568;45.286;9.900;2024-01-15T08:37:18;108.03;;;68.75;;
47804;SDS011;33568;45.286;9.900;2024-01-15T08:39:45;116.15;;;74.03;;
47804;SDS011;33568;45.286;9.900;2024-01-15T08:42:11;111.45;;;71.45;;
47804;SDS011;33568;45.286;9.900;2024-01-15T08:44:38;114.88;;;73.10;;
47804;SDS011;33568;45.286;9.900;2024-01-15T08:47:06;110.75;;;73.57;;
47804;SDS011;33568;45.286;9.900;2024-01-15T08:49:32;110.93;;;72.32;;
47804;SDS011;33568;45.286;9.900;2024-01-15T08:51:59;113.97;;;72.63;;
47804;SDS011;33568;45.286;9.900;2024-01-15T08:54:25;115.03;;;75.25;;
47804;SDS011;33568;45.286;9.900;2024-01-15T08:56:51;115.70;;;71.95;;
47804;SDS011;33568;45.286;9.900;2024-01-15T08:59:18;108.10;;;71.88;;
47804;SDS011;33568;45.286;9.900;2024-01-15T09:01:50;106.00;;;71.78;;
47804;SDS011;33568;45.286;9.900;2024-01-15T09:04:17;103.63;;;68.80;;
47804;SDS011;33568;45.286;9.900;2024-01-15T09:06:47;93.13;;;67.47;;
47804;SDS011;33568;45.286;9.900;2024-01-15T09:09:13;104.47;;;68.70;;
47804;SDS011;33568;45.286;9.900;2024-01-15T09:11:40;96.95;;;66.40;;
47804;SDS011;33568;45.286;9.900;2024-01-15T09:14:07;102.88;;;67.38;;
47804;SDS011;33568;45.286;9.900;2024-01-15T09:16:35;88.30;;;62.28;;
47804;SDS011;33568;45.286;9.900;2024-01-15T09:19:01;93.55;;;66.55;;
47804;SDS011;33568;45.286;9.900;2024-01-15T09:21:28;96.35;;;67.90;;
47804;SDS011;33568;45.286;9.900;2024-01-15T09:23:54;85.70;;;65.18;;
47804;SDS011;33568;45.286;9.900;2024-01-15T09:26:20;93.60;;;67.20;;
47804;SDS011;33568;45.286;9.900;2024-01-15T09:28:47;90.95;;;63.10;;
47804;SDS011;33568;45.286;9.900;2024-01-15T09:33:40;86.35;;;61.92;;
47804;SDS011;33568;45.286;9.900;2024-01-15T09:38:33;86.65;;;61.85;;
47804;SDS011;33568;45.286;9.900;2024-01-15T09:40:59;89.70;;;61.83;;
47804;SDS011;33568;45.286;9.900;2024-01-15T09:43:25;99.82;;;65.20;;
47804;SDS011;33568;45.286;9.900;2024-01-15T09:48:19;95.47;;;64.13;;
47804;SDS011;33568;45.286;9.900;2024-01-15T09:50:46;98.65;;;65.38;;
47804;SDS011;33568;45.286;9.900;2024-01-15T09:53:13;94.22;;;65.85;;
47804;SDS011;33568;45.286;9.900;2024-01-15T09:55:41;96.65;;;66.28;;
47804;SDS011;33568;45.286;9.900;2024-01-15T10:00:35;106.90;;;69.87;;
47804;SDS011;33568;45.286;9.900;2024-01-15T10:03:04;106.18;;;72.07;;
47804;SDS011;33568;45.286;9.900;2024-01-15T10:05:32;114.38;;;74.90;;
47804;SDS011;33568;45.286;9.900;2024-01-15T10:07:58;114.47;;;73.38;;
47804;SDS011;33568;45.286;9.900;2024-01-15T10:10:27;100.85;;;70.97;;
47804;SDS011;33568;45.286;9.900;2024-01-15T10:12:54;109.05;;;73.70;;
47804;SDS011;33568;45.286;9.900;2024-01-15T10:15:28;100.47;;;68.53;;
47804;SDS011;33568;45.286;9.900;2024-01-15T10:17:54;98.50;;;71.60;;
47804;SDS011;33568;45.286;9.900;2024-01-15T10:22:50;95.22;;;65.10;;
47804;SDS011;33568;45.286;9.900;2024-01-15T10:25:16;99.35;;;67.68;;
47804;SDS011;33568;45.286;9.900;2024-01-15T10:27:58;93.88;;;68.00;;
47804;SDS011;33568;45.286;9.900;2024-01-15T10:30:29;96.07;;;66.80;;
47804;SDS011;33568;45.286;9.900;2024-01-15T10:32:58;81.10;;;59.75;;
47804;SDS011;33568;45.286;9.900;2024-01-15T10:35:32;87.00;;;63.47;;
47804;SDS011;33568;45.286;9.900;2024-01-15T10:38:00;87.22;;;63.85;;
47804;SDS011;33568;45.286;9.900;2024-01-15T10:40:28;87.30;;;62.85;;
47804;SDS011;33568;45.286;9.900;2024-01-15T10:42:55;91.18;;;66.00;;
47804;SDS011;33568;45.286;9.900;2024-01-15T10:47:47;90.25;;;62.53;;
47804;SDS011;33568;45.286;9.900;2024-01-15T10:50:14;89.30;;;64.03;;
47804;SDS011;33568;45.286;9.900;2024-01-15T10:52:42;83.60;;;61.97;;
47804;SDS011;33568;45.286;9.900;2024-01-15T10:55:11;83.68;;;60.17;;
47804;SDS011;33568;45.286;9.900;2024-01-15T11:00:04;89.07;;;63.25;;
47804;SDS011;33568;45.286;9.900;2024-01-15T11:02:32;79.20;;;59.83;;
47804;SDS011;33568;45.286;9.900;2024-01-15T11:05:01;80.18;;;59.25;;
47804;SDS011;33568;45.286;9.900;2024-01-15T11:09:55;72.95;;;55.42;;
47804;SDS011;33568;45.286;9.900;2024-01-15T11:12:24;76.85;;;56.22;;
47804;SDS011;33568;45.286;9.900;2024-01-15T11:14:50;72.20;;;57.45;;
47804;SDS011;33568;45.286;9.900;2024-01-15T11:19:45;70.68;;;57.00;;
47804;SDS011;33568;45.286;9.900;2024-01-15T11:25:15;72.15;;;59.28;;
47804;SDS011;33568;45.286;9.900;2024-01-15T11:30:13;71.78;;;58.55;;
47804;SDS011;33568;45.286;9.900;2024-01-15T11:32:40;75.93;;;56.67;;
47804;SDS011;33568;45.286;9.900;2024-01-15T11:35:07;67.82;;;54.92;;
47804;SDS011;33568;45.286;9.900;2024-01-15T11:42:58;68.75;;;55.55;;
47804;SDS011;33568;45.286;9.900;2024-01-15T11:45:25;66.93;;;54.88;;
47804;SDS011;33568;45.286;9.900;2024-01-15T11:50:46;61.80;;;54.22;;
47804;SDS011;33568;45.286;9.900;2024-01-15T11:53:17;66.65;;;54.20;;
47804;SDS011;33568;45.286;9.900;2024-01-15T11:55:53;64.80;;;56.63;;
47804;SDS011;33568;45.286;9.900;2024-01-15T11:58:24;67.65;;;55.13;;
47804;SDS011;33568;45.286;9.900;2024-01-15T12:00:51;59.47;;;50.13;;
47804;SDS011;33568;45.286;9.900;2024-01-15T12:03:22;56.35;;;47.15;;
47804;SDS011;33568;45.286;9.900;2024-01-15T12:05:49;53.13;;;47.38;;
47804;SDS011;33568;45.286;9.900;2024-01-15T12:08:21;55.97;;;47.78;;
47804;SDS011;33568;45.286;9.900;2024-01-15T12:10:48;57.38;;;46.63;;
47804;SDS011;33568;45.286;9.900;2024-01-15T12:15:43;49.80;;;44.38;;
47804;SDS011;33568;45.286;9.900;2024-01-15T12:18:14;53.05;;;45.90;;
47804;SDS011;33568;45.286;9.900;2024-01-15T12:20:42;49.22;;;43.53;;
47804;SDS011;33568;45.286;9.900;2024-01-15T12:23:09;51.42;;;42.22;;
47804;SDS011;33568;45.286;9.900;2024-01-15T12:25:36;47.92;;;42.90;;
47804;SDS011;33568;45.286;9.900;2024-01-15T12:28:03;45.83;;;40.90;;
47804;SDS011;33568;45.286;9.900;2024-01-15T12:30:30;48.83;;;43.53;;
47804;SDS011;33568;45.286;9.900;2024-01-15T12:33:00;46.97;;;41.83;;
47804;SDS011;33568;45.286;9.900;2024-01-15T12:35:30;48.50;;;42.50;;
47804;SDS011;33568;45.286;9.900;2024-01-15T12:37:57;47.33;;;42.20;;
47804;SDS011;33568;45.286;9.900;2024-01-15T12:40:26;51.78;;;43.28;;
47804;SDS011;33568;45.286;9.900;2024-01-15T12:45:19;59.08;;;48.75;;
47804;SDS011;33568;45.286;9.900;2024-01-15T12:50:12;60.50;;;47.85;;
47804;SDS011;33568;45.286;9.900;2024-01-15T12:52:42;61.25;;;47.53;;
47804;SDS011;33568;45.286;9.900;2024-01-15T12:55:09;59.65;;;48.58;;
47804;SDS011;33568;45.286;9.900;2024-01-15T12:57:35;65.90;;;48.40;;
47804;SDS011;33568;45.286;9.900;2024-01-15T13:00:03;62.63;;;47.60;;
47804;SDS011;33568;45.286;9.900;2024-01-15T13:02:37;60.50;;;44.42;;
47804;SDS011;33568;45.286;9.900;2024-01-15T13:05:08;58.47;;;44.65;;
47804;SDS011;33568;45.286;9.900;2024-01-15T13:07:36;58.03;;;43.78;;
47804;SDS011;33568;45.286;9.900;2024-01-15T13:12:30;60.17;;;44.17;;
47804;SDS011;33568;45.286;9.900;2024-01-15T13:17:24;65.05;;;46.58;;
47804;SDS011;33568;45.286;9.900;2024-01-15T13:19:50;60.00;;;44.00;;
47804;SDS011;33568;45.286;9.900;2024-01-15T13:24:43;59.35;;;42.85;;
47804;SDS011;33568;45.286;9.900;2024-01-15T13:27:09;60.40;;;44.28;;
47804;SDS011;33568;45.286;9.900;2024-01-15T13:32:02;63.08;;;44.55;;
47804;SDS011;33568;45.286;9.900;2024-01-15T13:34:28;57.25;;;42.38;;
47804;SDS011;33568;45.286;9.900;2024-01-15T13:36:55;60.92;;;44.72;;
47804;SDS011;33568;45.286;9.900;2024-01-15T13:39:22;64.75;;;48.33;;
47804;SDS011;33568;45.286;9.900;2024-01-15T13:41:49;63.33;;;45.58;;
47804;SDS011;33568;45.286;9.900;2024-01-15T13:44:15;66.65;;;45.00;;
47804;SDS011;33568;45.286;9.900;2024-01-15T13:46:42;57.65;;;42.17;;
47804;SDS011;33568;45.286;9.900;2024-01-15T13:51:37;61.65;;;41.45;;
47804;SDS011;33568;45.286;9.900;2024-01-15T13:54:04;58.30;;;41.35;;
47804;SDS011;33568;45.286;9.900;2024-01-15T13:56:31;61.53;;;40.55;;
47804;SDS011;33568;45.286;9.900;2024-01-15T13:58:58;55.25;;;41.70;;
47804;SDS011;33568;45.286;9.900;2024-01-15T14:01:25;59.92;;;41.65;;
47804;SDS011;33568;45.286;9.900;2024-01-15T14:03:53;59.55;;;43.22;;
47804;SDS011;33568;45.286;9.900;2024-01-15T14:06:20;59.70;;;41.30;;
47804;SDS011;33568;45.286;9.900;2024-01-15T14:11:13;56.47;;;41.45;;
47804;SDS011;33568;45.286;9.900;2024-01-15T14:13:39;58.30;;;40.13;;
47804;SDS011;33568;45.286;9.900;2024-01-15T14:16:05;59.88;;;42.38;;
47804;SDS011;33568;45.286;9.900;2024-01-15T14:18:32;61.03;;;42.33;;
47804;SDS011;33568;45.286;9.900;2024-01-15T14:20:58;60.95;;;44.75;;
47804;SDS011;33568;45.286;9.900;2024-01-15T14:23:25;62.53;;;42.10;;
47804;SDS011;33568;45.286;9.900;2024-01-15T14:25:51;59.88;;;42.25;;
47804;SDS011;33568;45.286;9.900;2024-01-15T14:28:17;57.67;;;40.13;;
47804;SDS011;33568;45.286;9.900;2024-01-15T14:30:44;61.75;;;41.42;;
47804;SDS011;33568;45.286;9.900;2024-01-15T14:33:10;60.08;;;42.08;;
47804;SDS011;33568;45.286;9.900;2024-01-15T14:38:03;66.30;;;42.72;;
47804;SDS011;33568;45.286;9.900;2024-01-15T14:40:29;63.30;;;42.38;;
47804;SDS011;33568;45.286;9.900;2024-01-15T14:42:56;58.85;;;42.60;;
47804;SDS011;33568;45.286;9.900;2024-01-15T14:45:22;58.72;;;42.45;;
47804;SDS011;33568;45.286;9.900;2024-01-15T14:47:48;63.83;;;41.88;;
47804;SDS011;33568;45.286;9.900;2024-01-15T14:50:15;58.85;;;41.67;;
47804;SDS011;33568;45.286;9.900;2024-01-15T14:55:08;66.55;;;42.28;;
47804;SDS011;33568;45.286;9.900;2024-01-15T14:57:37;72.13;;;47.22;;
47804;SDS011;33568;45.286;9.900;2024-01-15T15:00:04;61.10;;;43.85;;
47804;SDS011;33568;45.286;9.900;2024-01-15T15:02:33;64.40;;;47.05;;
47804;SDS011;33568;45.286;9.900;2024-01-15T15:05:04;65.10;;;46.28;;
47804;SDS011;33568;45.286;9.900;2024-01-15T15:07:30;63.47;;;44.75;;
47804;SDS011;33568;45.286;9.900;2024-01-15T15:09:57;70.38;;;46.85;;
47804;SDS011;33568;45.286;9.900;2024-01-15T15:12:23;206.18;;;136.93;;
47804;SDS011;33568;45.286;9.900;2024-01-15T15:14:50;60.83;;;46.83;;
47804;SDS011;33568;45.286;9.900;2024-01-15T15:19:42;55.35;;;42.50;;
47804;SDS011;33568;45.286;9.900;2024-01-15T15:22:08;97.22;;;54.55;;
47804;SDS011;33568;45.286;9.900;2024-01-15T15:24:38;76.35;;;57.72;;
47804;SDS011;33568;45.286;9.900;2024-01-15T15:27:05;60.15;;;43.45;;
47804;SDS011;33568;45.286;9.900;2024-01-15T15:29:32;61.75;;;43.70;;
47804;SDS011;33568;45.286;9.900;2024-01-15T15:32:01;52.47;;;38.42;;
47804;SDS011;33568;45.286;9.900;2024-01-15T15:34:28;56.72;;;42.55;;
47804;SDS011;33568;45.286;9.900;2024-01-15T15:39:20;58.38;;;38.25;;
47804;SDS011;33568;45.286;9.900;2024-01-15T15:44:14;54.10;;;37.35;;
47804;SDS011;33568;45.286;9.900;2024-01-15T15:46:42;48.53;;;38.08;;
47804;SDS011;33568;45.286;9.900;2024-01-15T15:49:09;51.17;;;39.88;;
47804;SDS011;33568;45.286;9.900;2024-01-15T15:51:36;52.75;;;40.40;;
47804;SDS011;33568;45.286;9.900;2024-01-15T15:54:03;54.00;;;42.10;;
47804;SDS011;33568;45.286;9.900;2024-01-15T15:56:33;51.58;;;37.58;;
47804;SDS011;33568;45.286;9.900;2024-01-15T15:59:05;57.35;;;44.38;;
47804;SDS011;33568;45.286;9.900;2024-01-15T16:01:34;62.97;;;49.97;;
47804;SDS011;33568;45.286;9.900;2024-01-15T16:04:01;56.03;;;40.63;;
47804;SDS011;33568;45.286;9.900;2024-01-15T16:06:29;68.45;;;48.80;;
47804;SDS011;33568;45.286;9.900;2024-01-15T16:11:22;65.78;;;46.00;;
47804;SDS011;33568;45.286;9.900;2024-01-15T16:13:48;70.40;;;50.22;;
47804;SDS011;33568;45.286;9.900;2024-01-15T16:16:15;86.88;;;59.80;;
47804;SDS011;33568;45.286;9.900;2024-01-15T16:18:42;85.25;;;58.50;;
47804;SDS011;33568;45.286;9.900;2024-01-15T16:21:10;93.70;;;66.57;;
47804;SDS011;33568;45.286;9.900;2024-01-15T16:23:36;151.73;;;93.00;;
47804;SDS011;33568;45.286;9.900;2024-01-15T16:26:03;94.28;;;65.15;;
47804;SDS011;33568;45.286;9.900;2024-01-15T16:30:55;61.72;;;41.85;;
47804;SDS011;33568;45.286;9.900;2024-01-15T16:33:22;51.85;;;40.15;;
47804;SDS011;33568;45.286;9.900;2024-01-15T16:35:48;65.93;;;48.83;;
47804;SDS011;33568;45.286;9.900;2024-01-15T16:38:15;66.13;;;48.42;;